Terminal Aerodrome Forecast
Issued by NWS Paducah, KY

Home | Current Version | Previous Version | Text Only | Print | Product List | Glossary On
Versions: 1 2 3 4 5 6 7 8 9 10 11 12 13 14 15 16 17 18 19 20
000
FTUS43 KPAH 160544
TAFEVV
TAF
KEVV 160544Z 1606/1706 08004KT P6SM OVC004
     FM160800 07004KT 3/4SM -DZ BR OVC003
     FM161500 12007KT 2SM -DZ BR OVC010
     FM161700 14007KT 4SM BR OVC010
     FM162200 15009KT 5SM -SHRA BR OVC015=

USA.gov is the U.S. government's official web portal to all federal, state and local government web resources and services.